Time;durP1;ratioP1;P1;durP2;ratioP2;P2;SDS_P1;SDS_P2;PMS_P1;PMS_P2;Temp;Humidity;BMP_temperature;BMP_pressure;BME280_temperature;BME280_humidity;BME280_pressure;Samples;Min_cycle;Max_cycle;Signal;HPM_P1;HPM_P2
2021/05/13 00:00:38;;;;;;;10.02;7.40;;;;;;;15.63;78.88;99213.09;5071745;28;20056;-63
2021/05/13 00:03:04;;;;;;;8.70;6.78;;;;;;;15.62;79.37;99203.03;5064595;28;20048;-63
2021/05/13 00:05:29;;;;;;;10.55;7.22;;;;;;;15.64;78.43;99211.84;5077837;28;20097;-63
2021/05/13 00:07:55;;;;;;;8.73;7.13;;;;;;;15.62;78.74;99202.22;5077517;28;20066;-63
2021/05/13 00:10:23;;;;;;;9.48;7.35;;;;;;;15.56;79.65;99199.16;5077903;28;20024;-64
2021/05/13 00:12:54;;;;;;;13.20;7.97;;;;;;;15.55;79.14;99200.41;5077610;28;20062;-63
2021/05/13 00:15:23;;;;;;;11.10;7.75;;;;;;;15.52;79.15;99190.03;5077521;28;20427;-63
2021/05/13 00:17:50;;;;;;;11.07;7.57;;;;;;;15.56;78.97;99187.84;5077349;28;20469;-63
2021/05/13 00:20:23;;;;;;;9.57;7.45;;;;;;;15.54;79.39;99190.34;5077353;28;20289;-63
2021/05/13 00:22:49;;;;;;;13.02;7.50;;;;;;;15.52;79.03;99180.75;5077345;28;20028;-63
2021/05/13 00:25:15;;;;;;;12.02;8.00;;;;;;;15.52;79.14;99175.88;5077208;28;20025;-64
2021/05/13 00:27:41;;;;;;;9.38;7.50;;;;;;;15.46;79.60;99170.03;5077511;28;20024;-63
2021/05/13 00:30:08;;;;;;;12.25;8.25;;;;;;;15.41;79.87;99169.84;5077219;28;20024;-63
2021/05/13 00:32:36;;;;;;;11.88;8.02;;;;;;;15.39;79.43;99167.50;5077559;28;20104;-63
2021/05/13 00:35:06;;;;;;;10.38;7.80;;;;;;;15.39;80.09;99167.50;5077172;28;20484;-63
2021/05/13 00:37:31;;;;;;;9.98;7.97;;;;;;;15.35;80.53;99169.69;5077040;28;20064;-63
2021/05/13 00:39:57;;;;;;;13.32;7.78;;;;;;;15.34;80.34;99164.47;5077192;28;20063;-64
2021/05/13 00:42:22;;;;;;;10.20;8.07;;;;;;;15.30;80.28;99161.78;5077098;28;20028;-64
2021/05/13 00:44:48;;;;;;;10.80;7.97;;;;;;;15.31;79.99;99160.50;5077057;28;20082;-63
2021/05/13 00:47:13;;;;;;;11.70;8.88;;;;;;;15.29;80.48;99159.41;5077094;28;20038;-64
2021/05/13 00:49:40;;;;;;;18.38;8.38;;;;;;;15.26;80.55;99158.28;5061598;28;20417;-63
2021/05/13 00:52:12;;;;;;;12.23;8.75;;;;;;;15.22;80.94;99154.03;5056425;28;20029;-63
2021/05/13 00:54:42;;;;;;;10.68;8.25;;;;;;;15.21;80.73;99149.63;5056806;28;20412;-64
2021/05/13 00:57:08;;;;;;;13.52;8.88;;;;;;;15.20;80.63;99145.22;5056681;28;20079;-64
2021/05/13 00:59:37;;;;;;;10.88;9.00;;;;;;;15.19;80.36;99143.63;5056824;28;20029;-64
2021/05/13 01:02:02;;;;;;;11.75;8.60;;;;;;;15.16;80.89;99142.53;5056494;28;20025;-63
2021/05/13 01:04:27;;;;;;;13.40;9.25;;;;;;;15.15;80.82;99136.09;5057133;28;20032;-64
2021/05/13 01:06:55;;;;;;;11.32;8.38;;;;;;;15.15;80.84;99132.47;5056181;28;20381;-63
2021/05/13 01:09:26;;;;;;;12.90;9.75;;;;;;;15.13;80.72;99127.28;5056787;28;20071;-64
2021/05/13 01:11:54;;;;;;;16.77;10.23;;;;;;;15.13;81.00;99127.28;5056444;28;20048;-64
2021/05/13 01:14:39;;;;;;;13.38;9.55;;;;;;;15.13;81.81;99121.63;5056467;28;20025;-63
2021/05/13 01:19:40;;;;;;;12.35;9.45;;;;;;;15.10;81.89;99116.09;5056661;28;20428;-64
2021/05/13 01:22:05;;;;;;;13.52;9.98;;;;;;;15.08;81.62;99113.72;5056384;28;20028;-64
2021/05/13 01:24:31;;;;;;;12.90;10.30;;;;;;;15.07;81.36;99114.97;5056288;28;20033;-63
2021/05/13 01:26:57;;;;;;;12.48;9.55;;;;;;;15.06;81.58;99116.22;5055086;28;20063;-64
2021/05/13 01:29:26;;;;;;;13.70;9.45;;;;;;;15.07;81.20;99108.53;5056197;28;20421;-63
2021/05/13 01:31:51;;;;;;;16.88;10.07;;;;;;;15.10;81.56;99114.06;5055899;28;20071;-64
2021/05/13 01:34:17;;;;;;;14.43;10.95;;;;;;;15.09;81.20;99104.00;5055878;28;20368;-63
2021/05/13 01:36:43;;;;;;;12.60;9.25;;;;;;;15.08;81.53;99099.59;5055935;28;20079;-63
2021/05/13 01:39:11;;;;;;;12.13;9.25;;;;;;;15.06;81.38;99099.22;5055710;28;20026;-64
2021/05/13 01:41:37;;;;;;;14.10;10.30;;;;;;;15.05;81.66;99096.88;5059039;28;20020;-64
2021/05/13 01:44:03;;;;;;;13.40;10.30;;;;;;;15.04;81.88;99096.09;5055948;28;20032;-63
2021/05/13 01:46:29;;;;;;;12.27;9.98;;;;;;;15.05;82.40;99099.69;5055787;28;20024;-63
2021/05/13 01:48:55;;;;;;;12.55;10.43;;;;;;;15.03;82.12;99102.22;5055771;28;20017;-63
2021/05/13 01:51:21;;;;;;;14.02;10.77;;;;;;;15.00;82.44;99092.59;5055820;28;20052;-63
2021/05/13 01:53:47;;;;;;;16.33;10.65;;;;;;;15.01;82.05;99101.88;5055862;28;20029;-63
2021/05/13 01:56:13;;;;;;;15.38;10.68;;;;;;;15.00;82.32;99095.44;5055662;28;20038;-63
2021/05/13 01:58:40;;;;;;;13.85;10.40;;;;;;;15.00;82.55;99092.59;5055832;28;20025;-64
2021/05/13 02:01:08;;;;;;;15.75;10.45;;;;;;;15.03;82.63;99083.19;5055617;28;20404;-63
2021/05/13 02:03:35;;;;;;;13.50;9.77;;;;;;;15.03;82.23;99080.34;5055719;28;20447;-63
2021/05/13 02:06:00;;;;;;;16.35;9.75;;;;;;;15.04;82.24;99084.75;5055611;28;20036;-64
2021/05/13 02:08:25;;;;;;;13.15;10.75;;;;;;;15.03;82.72;99077.53;5055544;28;20037;-63
2021/05/13 02:10:51;;;;;;;16.15;10.27;;;;;;;15.01;82.42;99080.03;5055599;28;20029;-64
2021/05/13 02:13:16;;;;;;;13.00;10.60;;;;;;;15.01;82.35;99074.38;5055339;28;20024;-64
2021/05/13 02:15:42;;;;;;;12.90;10.20;;;;;;;15.02;82.39;99078.78;5055153;28;20500;-63
2021/05/13 02:18:07;;;;;;;13.35;9.40;;;;;;;15.01;82.32;99079.25;5055420;28;20033;-64
2021/05/13 02:20:33;;;;;;;13.20;10.13;;;;;;;15.00;82.33;99074.84;5055486;28;20071;-63
2021/05/13 02:22:59;;;;;;;12.25;9.82;;;;;;;14.96;82.58;99071.38;5071178;28;20068;-64
2021/05/13 02:25:32;;;;;;;15.88;10.98;;;;;;;14.95;82.69;99067.75;5055360;28;20426;-63
2021/05/13 02:27:59;;;;;;;13.65;9.85;;;;;;;14.93;82.69;99067.44;5055583;28;20324;-63
2021/05/13 02:30:24;;;;;;;13.52;10.38;;;;;;;14.93;82.94;99055.34;5055372;28;20028;-64
2021/05/13 02:32:50;;;;;;;15.52;10.35;;;;;;;14.93;83.06;99058.16;5055201;28;20025;-64
2021/05/13 02:35:16;;;;;;;14.57;10.90;;;;;;;14.93;82.95;99052.50;5055122;28;20300;-64
2021/05/13 02:37:42;;;;;;;21.95;11.55;;;;;;;14.93;83.26;99053.28;5055152;28;20083;-64
2021/05/13 02:40:09;;;;;;;17.75;10.75;;;;;;;14.94;83.12;99054.06;5055610;28;20029;-63
2021/05/13 02:42:35;;;;;;;13.98;9.68;;;;;;;14.97;82.85;99053.13;5055247;28;20461;-64
2021/05/13 02:45:00;;;;;;;19.52;9.80;;;;;;;14.99;82.85;99051.41;5055229;28;20037;-63
2021/05/13 02:47:26;;;;;;;13.27;10.27;;;;;;;15.02;82.90;99046.88;5055213;28;20405;-64
2021/05/13 02:49:51;;;;;;;14.57;9.60;;;;;;;14.99;83.06;99037.28;5058212;28;20060;-64
2021/05/13 02:52:17;;;;;;;13.98;8.85;;;;;;;14.97;82.49;99039.78;5059048;28;20031;-64
2021/05/13 02:54:42;;;;;;;10.57;8.75;;;;;;;14.95;82.53;99036.63;5059160;28;20036;-64
2021/05/13 02:57:08;;;;;;;11.23;9.23;;;;;;;14.94;82.67;99040.72;5059268;28;20024;-64
2021/05/13 02:59:47;;;;;;;12.32;8.85;;;;;;;14.92;82.70;99034.75;5058554;28;20029;-64
2021/05/13 03:02:13;;;;;;;17.10;8.98;;;;;;;14.90;83.38;99034.41;5059297;28;20057;-64
2021/05/13 03:04:39;;;;;;;12.40;9.75;;;;;;;14.90;83.04;99042.13;5057757;28;20112;-64
2021/05/13 03:07:05;;;;;;;11.85;9.68;;;;;;;14.88;82.84;99036.94;5058064;28;20086;-64
2021/05/13 03:09:31;;;;;;;10.98;9.18;;;;;;;14.87;83.16;99043.84;5059068;28;20033;-64
2021/05/13 03:11:56;;;;;;;13.68;9.30;;;;;;;14.86;83.16;99045.09;5057703;28;20055;-64
2021/05/13 03:14:22;;;;;;;11.05;8.88;;;;;;;14.86;83.07;99044.31;5058605;28;20048;-64
2021/05/13 03:16:47;;;;;;;15.68;9.38;;;;;;;14.84;82.91;99041.94;5058321;28;20041;-64
2021/05/13 03:19:21;;;;;;;11.05;9.00;;;;;;;14.84;83.16;99048.38;5058890;28;20028;-63
2021/05/13 03:21:47;;;;;;;12.50;8.95;;;;;;;14.83;83.45;99051.69;5058442;28;20036;-64
2021/05/13 03:27:09;;;;;;;9.80;7.78;;;;;;;14.81;83.65;99057.81;5058313;28;20063;-64
2021/05/13 03:29:35;;;;;;;10.35;8.23;;;;;;;14.81;83.35;99054.97;5058714;28;20025;-63
2021/05/13 03:32:00;;;;;;;13.27;9.00;;;;;;;14.80;83.34;99053.41;5058214;28;20051;-64
2021/05/13 03:34:25;;;;;;;10.68;8.00;;;;;;;14.82;83.32;99050.09;5058508;28;20104;-64
2021/05/13 03:36:51;;;;;;;10.40;8.23;;;;;;;14.83;82.81;99051.69;5058161;28;20078;-63
2021/05/13 03:39:16;;;;;;;12.35;8.93;;;;;;;14.84;83.20;99053.25;5058516;28;20054;-63
2021/05/13 03:41:41;;;;;;;12.68;7.72;;;;;;;14.86;82.99;99050.75;5058122;28;20074;-63
2021/05/13 03:44:07;;;;;;;8.73;7.70;;;;;;;14.88;83.24;99055.94;5058238;28;20416;-63
2021/05/13 03:46:32;;;;;;;11.70;7.72;;;;;;;14.89;82.71;99049.03;5058342;28;20036;-63
2021/05/13 03:48:58;;;;;;;10.00;7.88;;;;;;;14.90;82.55;99054.22;5056882;28;20024;-63
2021/05/13 03:51:23;;;;;;;12.82;8.15;;;;;;;14.90;82.54;99057.06;5058263;28;20032;-63
2021/05/13 03:53:49;;;;;;;12.43;7.32;;;;;;;14.91;82.94;99055.78;5058114;28;20039;-64
2021/05/13 03:56:15;;;;;;;10.98;7.22;;;;;;;14.93;82.96;99061.78;5057708;28;20017;-64
2021/05/13 03:58:45;;;;;;;11.30;7.20;;;;;;;14.95;82.66;99062.09;5049729;28;20091;-64
2021/05/13 04:01:14;;;;;;;10.77;7.88;;;;;;;14.98;82.94;99060.38;5052097;28;20020;-64
2021/05/13 04:03:40;;;;;;;10.43;7.35;;;;;;;15.00;82.96;99066.34;5057631;28;20436;-64
2021/05/13 04:06:05;;;;;;;10.27;8.27;;;;;;;15.02;82.89;99056.16;5056557;28;20141;-63
2021/05/13 04:08:31;;;;;;;10.50;7.80;;;;;;;15.05;83.09;99060.88;5056771;28;20293;-64
2021/05/13 04:10:56;;;;;;;9.68;7.85;;;;;;;15.08;82.92;99068.47;5057363;28;20025;-63
2021/05/13 04:13:22;;;;;;;10.20;7.55;;;;;;;15.10;83.17;99070.81;5057510;28;20028;-64
2021/05/13 04:15:48;;;;;;;10.52;7.32;;;;;;;15.11;83.53;99078.84;5057337;28;20087;-65
2021/05/13 04:18:14;;;;;;;9.55;6.47;;;;;;;15.13;82.94;99078.38;5057428;28;20480;-63
2021/05/13 04:20:42;;;;;;;9.98;6.72;;;;;;;15.14;82.66;99083.56;5057389;28;20112;-65
2021/05/13 04:23:09;;;;;;;9.70;5.88;;;;;;;15.12;83.30;99080.41;5057579;28;20413;-65
2021/05/13 04:25:35;;;;;;;9.45;7.22;;;;;;;15.12;83.20;99073.97;5057282;28;20108;-65
2021/05/13 04:28:01;;;;;;;8.88;6.43;;;;;;;15.13;83.26;99079.16;5057343;28;20470;-65
2021/05/13 04:30:27;;;;;;;8.18;6.53;;;;;;;15.18;83.22;99074.13;5057256;28;20037;-65
2021/05/13 04:32:52;;;;;;;11.05;6.63;;;;;;;15.22;83.11;99071.94;5055525;28;20025;-64
2021/05/13 04:35:18;;;;;;;8.77;6.18;;;;;;;15.24;83.25;99072.28;5052709;28;20027;-64
2021/05/13 04:37:43;;;;;;;10.15;6.93;;;;;;;15.25;82.75;99076.69;5057022;28;20025;-64
2021/05/13 04:40:09;;;;;;;10.65;7.22;;;;;;;15.27;82.88;99074.94;5049819;28;20056;-64
2021/05/13 04:42:34;;;;;;;9.90;6.78;;;;;;;15.28;82.24;99075.75;5041377;28;20044;-64
2021/05/13 04:45:00;;;;;;;7.63;6.20;;;;;;;15.28;82.55;99058.75;5049132;28;20454;-64
2021/05/13 04:47:31;;;;;;;8.82;7.30;;;;;;;15.29;83.13;99060.34;5043224;28;20028;-64
2021/05/13 04:49:56;;;;;;;11.32;6.97;;;;;;;15.33;82.79;99055.31;5042187;28;20078;-64
2021/05/13 04:52:24;;;;;;;13.43;6.78;;;;;;;15.39;82.23;99059.13;5044089;28;20044;-64
2021/05/13 04:54:52;;;;;;;12.93;6.80;;;;;;;15.39;82.42;99054.25;5043581;28;20393;-64
2021/05/13 04:57:17;;;;;;;9.27;6.70;;;;;;;15.41;82.45;99059.44;5052992;28;20017;-64
2021/05/13 04:59:44;;;;;;;8.27;6.32;;;;;;;15.42;82.51;99056.13;5053915;28;20614;-64
2021/05/13 05:02:09;;;;;;;7.85;6.82;;;;;;;15.43;82.00;99062.59;5048585;28;20052;-65
2021/05/13 05:04:35;;;;;;;13.82;7.13;;;;;;;15.44;82.50;99052.84;5052866;28;20057;-64
2021/05/13 05:07:00;;;;;;;9.35;7.13;;;;;;;15.44;82.72;99062.13;5056047;28;20142;-64
2021/05/13 05:09:25;;;;;;;10.70;6.88;;;;;;;15.44;82.66;99053.63;5054750;28;20036;-64
2021/05/13 05:11:51;;;;;;;7.72;6.32;;;;;;;15.50;81.64;99059.44;5055633;28;20020;-64
2021/05/13 05:14:17;;;;;;;6.75;5.90;;;;;;;15.51;82.22;99049.69;5054766;28;20025;-65
2021/05/13 05:16:43;;;;;;;8.60;6.50;;;;;;;15.53;82.50;99058.50;5054112;28;20052;-64
2021/05/13 05:19:08;;;;;;;11.20;7.25;;;;;;;15.56;81.86;99057.56;5054647;28;20025;-64
2021/05/13 05:21:33;;;;;;;11.18;6.18;;;;;;;15.56;82.04;99063.22;5054163;28;20060;-64
2021/05/13 05:23:59;;;;;;;10.32;6.30;;;;;;;15.58;82.37;99057.91;5054524;28;20017;-64
2021/05/13 05:26:24;;;;;;;9.77;6.50;;;;;;;15.59;82.08;99056.66;5054435;28;20028;-64
2021/05/13 05:28:49;;;;;;;9.45;6.50;;;;;;;15.63;82.26;99053.69;5055823;28;20313;-64
2021/05/13 05:31:15;;;;;;;7.85;5.63;;;;;;;15.65;81.42;99054.81;5056286;28;20029;-64
2021/05/13 05:33:40;;;;;;;7.53;6.30;;;;;;;15.66;81.91;99050.72;5054902;28;20429;-64
2021/05/13 05:36:05;;;;;;;8.65;6.50;;;;;;;15.69;81.37;99054.66;5055999;28;20027;-64
2021/05/13 05:38:31;;;;;;;8.35;6.70;;;;;;;15.72;80.96;99053.72;5055608;28;20029;-64
2021/05/13 05:40:56;;;;;;;6.80;6.05;;;;;;;15.71;81.18;99047.25;5056296;28;20351;-64
2021/05/13 05:43:22;;;;;;;11.98;7.10;;;;;;;15.72;81.26;99050.88;5055050;28;20025;-63
2021/05/13 05:45:48;;;;;;;8.30;6.32;;;;;;;15.77;80.32;99051.03;5055555;28;20079;-65
2021/05/13 05:48:13;;;;;;;9.57;6.57;;;;;;;15.81;80.84;99048.03;5056011;28;20017;-65
2021/05/13 05:50:40;;;;;;;8.55;6.80;;;;;;;15.85;80.71;99050.72;5055704;28;20067;-64
2021/05/13 05:53:07;;;;;;;10.38;6.60;;;;;;;15.89;81.26;99057.03;5055746;28;20082;-64
2021/05/13 05:55:32;;;;;;;8.35;6.70;;;;;;;15.89;81.03;99057.03;5055707;28;20104;-64
2021/05/13 05:57:58;;;;;;;10.93;6.45;;;;;;;15.93;81.16;99052.00;5055566;28;20405;-64
2021/05/13 06:00:25;;;;;;;11.48;7.13;;;;;;;15.95;80.97;99050.25;5055826;28;20016;-65
2021/05/13 06:02:51;;;;;;;13.60;7.25;;;;;;;15.98;80.73;99054.97;5055450;28;20067;-64
2021/05/13 06:05:17;;;;;;;9.85;7.07;;;;;;;16.01;80.05;99054.03;5055832;28;20099;-64
2021/05/13 06:07:42;;;;;;;12.40;8.15;;;;;;;16.03;80.07;99062.06;5055459;28;20024;-65
2021/05/13 06:10:10;;;;;;;10.52;7.63;;;;;;;16.04;79.91;99053.09;5055371;28;20448;-65
2021/05/13 06:12:36;;;;;;;7.72;6.55;;;;;;;16.04;79.94;99063.63;5055693;28;20112;-65
2021/05/13 06:15:06;;;;;;;11.02;7.35;;;;;;;16.06;80.25;99061.13;5055127;28;20035;-65
2021/05/13 06:17:31;;;;;;;8.60;7.70;;;;;;;16.10;80.28;99066.63;5055448;28;20431;-64
2021/05/13 06:20:02;;;;;;;7.63;6.82;;;;;;;16.12;80.43;99062.06;5055386;28;20096;-65
2021/05/13 06:22:29;;;;;;;7.00;6.25;;;;;;;16.15;79.96;99061.09;5055480;28;20036;-64
2021/05/13 06:24:55;;;;;;;10.10;7.75;;;;;;;16.16;79.75;99061.91;5054935;28;20074;-65
2021/05/13 06:27:21;;;;;;;9.15;7.53;;;;;;;16.17;79.72;99064.28;5055551;28;20017;-65
2021/05/13 06:29:47;;;;;;;9.15;6.63;;;;;;;16.22;79.04;99057.97;5055430;28;20083;-65
2021/05/13 06:32:13;;;;;;;9.35;7.45;;;;;;;16.25;79.55;99056.25;5055158;28;20017;-64
2021/05/13 06:34:38;;;;;;;9.18;6.35;;;;;;;16.28;79.41;99058.13;5055370;28;20071;-64
2021/05/13 06:37:03;;;;;;;6.75;6.05;;;;;;;16.32;78.36;99062.38;5054883;28;20439;-64
2021/05/13 06:39:32;;;;;;;6.63;5.68;;;;;;;16.34;77.36;99053.38;5055323;28;20112;-65
2021/05/13 06:41:59;;;;;;;7.20;5.50;;;;;;;16.34;77.50;99061.88;5055337;28;20017;-64
2021/05/13 06:44:24;;;;;;;9.05;5.95;;;;;;;16.36;78.17;99060.16;5055401;28;20320;-65
2021/05/13 06:46:49;;;;;;;9.18;5.60;;;;;;;16.38;77.32;99056.84;5055066;28;20029;-64
2021/05/13 06:49:15;;;;;;;5.60;5.00;;;;;;;16.43;77.00;99058.25;5055171;28;20017;-65
2021/05/13 06:51:40;;;;;;;7.20;5.60;;;;;;;16.46;76.88;99060.16;5055090;28;20040;-65
2021/05/13 06:54:06;;;;;;;6.28;5.00;;;;;;;16.49;76.73;99059.22;5054932;28;20025;-64
2021/05/13 06:56:31;;;;;;;6.35;4.82;;;;;;;16.54;76.42;99056.50;5055173;28;20516;-64
2021/05/13 06:58:57;;;;;;;6.93;5.07;;;;;;;16.58;76.37;99062.81;5055061;28;20040;-65
2021/05/13 07:01:22;;;;;;;8.02;4.80;;;;;;;16.63;75.87;99055.69;5055000;28;20039;-65
2021/05/13 07:03:48;;;;;;;6.22;4.30;;;;;;;16.67;75.54;99050.66;5053917;28;20111;-65
2021/05/13 07:06:13;;;;;;;7.53;4.57;;;;;;;16.70;76.26;99046.88;5054998;28;20025;-65
2021/05/13 07:08:39;;;;;;;8.60;4.50;;;;;;;16.74;75.75;99046.72;5054125;28;20060;-65
2021/05/13 07:11:04;;;;;;;8.35;4.97;;;;;;;16.77;74.56;99049.41;5054869;28;20021;-65
2021/05/13 07:13:30;;;;;;;9.35;5.50;;;;;;;16.80;75.25;99051.28;5054963;28;20029;-64
2021/05/13 07:15:55;;;;;;;6.15;4.93;;;;;;;16.84;76.19;99053.94;5054790;28;20383;-65
2021/05/13 07:18:21;;;;;;;7.60;5.50;;;;;;;16.88;76.14;99046.03;5054738;28;20478;-65
2021/05/13 07:20:47;;;;;;;9.07;5.40;;;;;;;16.92;74.66;99041.75;5054777;28;20115;-65
2021/05/13 07:23:13;;;;;;;6.80;4.78;;;;;;;16.95;75.61;99043.63;5054045;28;20115;-65
2021/05/13 07:25:40;;;;;;;5.07;4.57;;;;;;;16.97;74.80;99043.16;5055001;28;20111;-65
2021/05/13 07:28:06;;;;;;;7.13;5.00;;;;;;;17.01;74.08;99045.84;5054757;28;20023;-65
2021/05/13 07:30:31;;;;;;;9.88;5.25;;;;;;;17.02;73.89;99039.69;5054756;28;20040;-65
2021/05/13 07:32:57;;;;;;;5.57;4.68;;;;;;;17.04;74.58;99047.72;5054711;28;20025;-66
2021/05/13 07:35:22;;;;;;;6.30;4.80;;;;;;;17.09;73.76;99044.22;5054848;28;20021;-65
2021/05/13 07:37:48;;;;;;;6.05;5.10;;;;;;;17.13;73.15;99050.53;5058377;28;20036;-65
2021/05/13 07:40:16;;;;;;;7.45;4.97;;;;;;;17.15;72.91;99043.09;5058473;28;20123;-65
2021/05/13 07:42:42;;;;;;;7.90;5.05;;;;;;;17.16;73.28;99033.31;5058353;28;20029;-64
2021/05/13 07:45:08;;;;;;;7.55;5.18;;;;;;;17.23;73.65;99037.84;5057347;28;20108;-65
2021/05/13 07:47:38;;;;;;;8.18;4.90;;;;;;;17.34;75.05;99038.13;5058192;28;20029;-65
2021/05/13 07:50:08;;;;;;;9.40;4.03;;;;;;;17.44;74.48;99041.69;5057823;28;20111;-64
2021/05/13 07:52:34;;;;;;;5.65;4.90;;;;;;;17.55;74.53;99036.25;5057996;28;20380;-65
2021/05/13 07:55:00;;;;;;;12.77;4.65;;;;;;;17.60;72.47;99038.44;5058170;28;20063;-65
2021/05/13 07:57:26;;;;;;;4.72;4.30;;;;;;;17.63;71.78;99037.47;5057841;28;20401;-65
2021/05/13 07:59:52;;;;;;;8.82;5.07;;;;;;;17.66;71.83;99036.50;5057910;28;20108;-64
2021/05/13 08:02:17;;;;;;;7.22;4.35;;;;;;;17.71;72.06;99032.22;5057995;28;20025;-65
2021/05/13 08:04:42;;;;;;;6.53;4.43;;;;;;;17.74;70.27;99028.41;5057746;28;20036;-65
2021/05/13 08:07:08;;;;;;;5.00;4.50;;;;;;;17.76;70.90;99035.19;5057969;28;20013;-65
2021/05/13 08:09:33;;;;;;;4.85;4.13;;;;;;;17.83;71.62;99028.34;5057958;28;20017;-65
2021/05/13 08:11:58;;;;;;;5.97;5.32;;;;;;;17.90;70.86;99036.50;5057602;28;20427;-65
2021/05/13 08:14:24;;;;;;;5.50;4.93;;;;;;;17.92;70.86;99026.22;5057668;28;21074;-65
2021/05/13 08:16:49;;;;;;;7.70;5.55;;;;;;;17.99;71.04;99038.47;5057133;28;20041;-64
2021/05/13 08:19:15;;;;;;;6.55;5.20;;;;;;;18.02;70.89;99024.06;5057824;28;20155;-65
2021/05/13 08:21:40;;;;;;;7.40;5.72;;;;;;;18.06;70.80;99030.34;5056284;28;20036;-64
2021/05/13 08:24:06;;;;;;;8.80;5.90;;;;;;;18.08;70.42;99027.84;5057552;28;20028;-64
2021/05/13 08:26:32;;;;;;;9.25;6.30;;;;;;;18.13;70.52;99030.00;5057642;28;20013;-64
2021/05/13 08:28:57;;;;;;;8.35;6.18;;;;;;;18.18;68.99;99039.91;5057430;28;20017;-64
2021/05/13 08:31:22;;;;;;;7.55;5.82;;;;;;;18.20;68.96;99032.47;5057352;28;20096;-64
2021/05/13 08:33:48;;;;;;;9.77;6.28;;;;;;;18.26;69.73;99031.78;5057121;28;20045;-63
2021/05/13 08:36:13;;;;;;;7.20;5.72;;;;;;;18.33;69.20;99037.06;5057201;28;20017;-64
2021/05/13 08:38:38;;;;;;;8.15;5.40;;;;;;;18.39;68.39;99035.13;5057253;28;20033;-65
2021/05/13 08:41:05;;;;;;;9.07;5.97;;;;;;;18.49;69.43;99028.06;5057497;28;20021;-64
2021/05/13 08:43:31;;;;;;;6.95;5.93;;;;;;;18.56;69.08;99021.97;5057435;28;20049;-64
2021/05/13 08:45:57;;;;;;;7.95;6.10;;;;;;;18.62;69.14;99020.03;5056489;28;20113;-64
2021/05/13 08:48:28;;;;;;;13.25;6.25;;;;;;;18.70;69.37;99017.59;5056895;28;20417;-64
2021/05/13 08:50:59;;;;;;;6.78;6.00;;;;;;;18.76;69.24;99021.31;5056855;28;20028;-64
2021/05/13 08:53:25;;;;;;;5.57;4.93;;;;;;;18.80;67.28;99011.31;5057078;28;20032;-64
2021/05/13 08:55:50;;;;;;;6.85;4.63;;;;;;;18.83;67.79;99020.91;5056817;28;20029;-65
2021/05/13 08:58:15;;;;;;;5.10;4.60;;;;;;;18.87;68.85;99018.66;5056741;28;20024;-65
2021/05/13 09:00:51;;;;;;;5.43;4.40;;;;;;;18.91;68.05;99021.31;5056673;28;20021;-64
2021/05/13 09:03:37;;;;;;;5.47;4.80;;;;;;;18.94;68.14;99011.78;5056677;28;20017;-65
2021/05/13 09:06:03;;;;;;;7.30;5.07;;;;;;;18.97;67.55;99010.81;5056797;28;20112;-65
2021/05/13 09:08:29;;;;;;;7.38;4.65;;;;;;;18.97;67.08;99016.50;5056751;28;20404;-65
2021/05/13 09:11:08;;;;;;;6.93;4.90;;;;;;;19.01;67.41;99017.06;5055650;28;20079;-65
2021/05/13 09:13:33;;;;;;;7.25;5.68;;;;;;;19.08;68.26;99022.34;5056590;28;20025;-64
2021/05/13 09:15:59;;;;;;;8.30;6.25;;;;;;;19.11;66.32;99016.47;5056095;28;20332;-64
2021/05/13 09:18:32;;;;;;;8.27;6.10;;;;;;;19.12;66.31;99015.19;5056410;28;20037;-64
2021/05/13 09:21:04;;;;;;;9.57;6.03;;;;;;;19.19;67.96;99011.16;5055444;28;20082;-64
2021/05/13 09:23:30;;;;;;;11.23;7.95;;;;;;;19.28;69.33;99013.88;5056411;28;20112;-65
2021/05/13 09:26:12;;;;;;;9.00;6.10;;;;;;;19.32;66.26;99017.28;5056232;28;20123;-64
2021/05/13 09:28:41;;;;;;;6.53;5.78;;;;;;;19.35;66.34;99019.13;5056255;28;20025;-64
2021/05/13 09:31:07;;;;;;;10.70;5.93;;;;;;;19.36;66.47;99023.56;5055971;28;20071;-64
2021/05/13 09:33:38;;;;;;;6.93;4.40;;;;;;;19.41;66.06;99022.06;5056078;28;20353;-65
2021/05/13 09:36:25;;;;;;;7.47;4.90;;;;;;;19.47;65.18;99011.56;5056143;28;20364;-64
2021/05/13 09:38:51;;;;;;;5.68;3.72;;;;;;;19.50;64.29;99012.63;5054907;28;20507;-64
2021/05/13 09:41:27;;;;;;;4.60;3.25;;;;;;;19.52;64.24;99012.91;5056491;28;20025;-63
2021/05/13 09:43:52;;;;;;;5.32;3.20;;;;;;;19.51;62.30;99017.03;5055678;28;20029;-64
2021/05/13 09:46:34;;;;;;;4.15;3.17;;;;;;;19.53;64.17;99012.44;5056179;28;20020;-64
2021/05/13 09:49:00;;;;;;;3.90;3.33;;;;;;;19.55;64.72;99014.78;5055730;28;20032;-64
2021/05/13 09:51:28;;;;;;;4.35;3.25;;;;;;;19.59;64.45;99003.97;5056033;28;20074;-64
2021/05/13 09:54:15;;;;;;;3.47;3.08;;;;;;;19.63;64.76;99008.16;5055768;28;20087;-64
2021/05/13 09:56:42;;;;;;;4.07;3.00;;;;;;;19.69;64.01;99003.31;5055859;28;20029;-64
2021/05/13 09:59:24;;;;;;;3.25;2.83;;;;;;;19.72;62.49;99001.53;5054872;28;20028;-65
2021/05/13 10:01:52;;;;;;;5.50;2.03;;;;;;;19.77;63.09;98992.28;5055804;28;20025;-64
2021/05/13 10:04:18;;;;;;;4.57;2.20;;;;;;;19.82;63.27;98994.41;5055836;28;20021;-64
2021/05/13 10:06:43;;;;;;;3.50;2.72;;;;;;;19.88;63.68;99003.81;5055556;28;20009;-64
2021/05/13 10:09:12;;;;;;;3.70;1.77;;;;;;;19.89;59.18;98996.81;5055721;28;20572;-65
2021/05/13 10:11:37;;;;;;;2.47;2.17;;;;;;;19.87;60.92;98999.38;5055719;28;20025;-64
2021/05/13 10:14:04;;;;;;;2.60;1.95;;;;;;;19.88;61.17;98997.31;5055838;28;20048;-65
2021/05/13 10:16:30;;;;;;;1.90;1.55;;;;;;;19.86;59.00;99000.69;5055319;28;20041;-65
2021/05/13 10:19:05;;;;;;;1.98;1.77;;;;;;;19.80;59.15;98999.81;5055567;28;20056;-64
2021/05/13 10:21:31;;;;;;;2.47;1.30;;;;;;;19.75;59.64;98994.84;5055500;28;20033;-64
2021/05/13 10:23:57;;;;;;;1.50;1.40;;;;;;;19.68;59.36;98986.69;5055462;28;20021;-64
2021/05/13 10:26:41;;;;;;;1.55;1.10;;;;;;;19.67;60.07;98988.00;5055604;28;20041;-64
2021/05/13 10:29:22;;;;;;;1.38;1.27;;;;;;;19.62;59.80;98983.00;5041838;28;20104;-65
2021/05/13 10:32:11;;;;;;;1.53;1.13;;;;;;;19.58;59.44;98991.00;5055633;28;20079;-64
2021/05/13 10:35:05;;;;;;;0.70;0.70;;;;;;;19.52;59.14;98990.88;5055683;28;20033;-64
2021/05/13 10:37:39;;;;;;;2.75;0.80;;;;;;;19.49;59.78;98986.19;5055001;28;20083;-64
2021/05/13 10:42:40;;;;;;;1.00;0.90;;;;;;;19.43;59.35;98986.09;5055120;28;20037;-64
2021/05/13 10:45:23;;;;;;;1.27;0.90;;;;;;;19.42;60.10;98984.53;5055304;28;20036;-65
2021/05/13 10:48:12;;;;;;;1.88;1.00;;;;;;;19.41;59.38;98988.66;5041663;28;20416;-65
2021/05/13 10:51:06;;;;;;;3.50;1.00;;;;;;;19.39;60.20;98991.22;5055168;28;20439;-64
2021/05/13 10:53:35;;;;;;;2.05;1.27;;;;;;;19.37;59.17;98988.09;5054894;28;20454;-65
2021/05/13 10:56:14;;;;;;;1.88;1.30;;;;;;;19.36;59.17;98989.38;5055000;28;20301;-65
2021/05/13 10:58:54;;;;;;;1.83;1.10;;;;;;;19.36;59.68;98988.59;5055177;28;20078;-65
2021/05/13 11:01:31;;;;;;;1.10;1.00;;;;;;;19.36;59.46;98986.53;5055130;28;20368;-64
2021/05/13 11:04:21;;;;;;;2.22;1.30;;;;;;;19.35;60.27;98984.16;5055013;28;20033;-64
2021/05/13 11:07:03;;;;;;;4.00;1.40;;;;;;;19.32;59.59;98985.94;5053907;28;20021;-64
2021/05/13 11:09:40;;;;;;;3.35;1.17;;;;;;;19.30;60.07;98976.34;5055905;28;20105;-63
2021/05/13 11:12:08;;;;;;;1.92;1.60;;;;;;;19.31;60.10;98984.38;5044982;28;20029;-64
2021/05/13 11:17:46;;;;;;;2.78;1.40;;;;;;;19.32;59.86;98968.06;5058942;28;20126;-64
2021/05/13 11:20:29;;;;;;;2.15;1.20;;;;;;;19.36;60.29;98969.44;5057545;28;20036;-64
2021/05/13 11:23:04;;;;;;;3.30;1.65;;;;;;;19.44;60.54;98964.88;5057683;28;20431;-64
2021/05/13 11:25:45;;;;;;;2.00;1.70;;;;;;;19.49;60.12;98965.47;5058460;28;20032;-64
2021/05/13 11:28:37;;;;;;;3.20;1.80;;;;;;;19.51;59.44;98975.09;5058635;28;20025;-63
2021/05/13 11:31:05;;;;;;;3.25;1.77;;;;;;;19.50;58.98;98967.81;5058728;28;20025;-64
2021/05/13 11:33:43;;;;;;;1.63;1.30;;;;;;;19.47;59.04;98968.03;5058479;28;20028;-64
2021/05/13 11:36:11;;;;;;;3.95;1.80;;;;;;;19.44;59.82;98962.03;5058410;28;20032;-64
2021/05/13 11:38:37;;;;;;;2.72;1.60;;;;;;;19.40;59.90;98964.31;5058368;28;20033;-64
2021/05/13 11:41:03;;;;;;;3.13;1.50;;;;;;;19.39;59.73;98962.72;5058526;28;20023;-65
2021/05/13 11:43:32;;;;;;;2.80;1.60;;;;;;;19.37;59.15;98965.31;5058506;28;20020;-65